sensor_id;sensor_type;location;lat;lon;timestamp;pressure;altitude;pressure_sealevel;temperature;humidity
5053;BME280;2545;50.892;5.740;2023-09-08T00:01:51;55882.69;;;-142.21;72.68
5053;BME280;2545;50.892;5.740;2023-09-08T00:04:17;55904.25;;;-142.21;73.13
5053;BME280;2545;50.892;5.740;2023-09-08T00:06:45;55925.81;;;-142.21;73.05
5053;BME280;2545;50.892;5.740;2023-09-08T00:09:13;55984.63;;;-142.21;72.48
5053;BME280;2545;50.892;5.740;2023-09-08T00:11:38;55896.41;;;-142.21;72.36
5053;BME280;2545;50.892;5.740;2023-09-08T00:14:04;55890.53;;;-142.21;72.79
5053;BME280;2545;50.892;5.740;2023-09-08T00:16:32;55888.56;;;-142.21;73.14
5053;BME280;2545;50.892;5.740;2023-09-08T00:18:57;55910.13;;;-142.21;73.86
5053;BME280;2545;50.892;5.740;2023-09-08T00:21:27;55880.72;;;-142.21;73.57
5053;BME280;2545;50.892;5.740;2023-09-08T00:23:53;55845.44;;;-142.21;73.82
5053;BME280;2545;50.892;5.740;2023-09-08T00:26:18;55859.16;;;-142.21;73.69
5053;BME280;2545;50.892;5.740;2023-09-08T00:28:44;55910.13;;;-142.21;73.72
5053;BME280;2545;50.892;5.740;2023-09-08T00:31:09;55894.44;;;-142.21;73.76
5053;BME280;2545;50.892;5.740;2023-09-08T00:33:34;55912.09;;;-142.21;74.56
5053;BME280;2545;50.892;5.740;2023-09-08T00:36:02;55927.78;;;-142.21;74.98
5053;BME280;2545;50.892;5.740;2023-09-08T00:38:28;55867.00;;;-142.21;75.23
5053;BME280;2545;50.892;5.740;2023-09-08T00:40:53;55947.38;;;-142.21;75.22
5053;BME280;2545;50.892;5.740;2023-09-08T00:43:18;55929.75;;;-142.21;76.02
5053;BME280;2545;50.892;5.740;2023-09-08T00:45:45;55912.09;;;-142.21;76.73
5053;BME280;2545;50.892;5.740;2023-09-08T00:48:11;55888.56;;;-142.21;77.17
5053;BME280;2545;50.892;5.740;2023-09-08T00:50:42;55910.13;;;-142.21;77.47
5053;BME280;2545;50.892;5.740;2023-09-08T00:53:08;55912.09;;;-142.21;77.99
5053;BME280;2545;50.892;5.740;2023-09-08T00:55:34;55914.06;;;-142.21;77.49
5053;BME280;2545;50.892;5.740;2023-09-08T00:57:59;55876.78;;;-142.21;77.61
5053;BME280;2545;50.892;5.740;2023-09-08T01:00:25;55892.47;;;-142.21;77.89
5053;BME280;2545;50.892;5.740;2023-09-08T01:02:51;55910.13;;;-142.21;78.41
5053;BME280;2545;50.892;5.740;2023-09-08T01:05:20;55906.22;;;-142.21;79.10
5053;BME280;2545;50.892;5.740;2023-09-08T01:07:46;55927.78;;;-142.21;79.61
5053;BME280;2545;50.892;5.740;2023-09-08T01:10:13;55921.91;;;-142.21;79.57
5053;BME280;2545;50.892;5.740;2023-09-08T01:12:42;55921.91;;;-142.21;79.36
5053;BME280;2545;50.892;5.740;2023-09-08T01:15:10;55892.47;;;-142.21;79.23
5053;BME280;2545;50.892;5.740;2023-09-08T01:17:38;55900.31;;;-142.21;79.55
5053;BME280;2545;50.892;5.740;2023-09-08T01:25:28;55910.13;;;-142.21;80.08
5053;BME280;2545;50.892;5.740;2023-09-08T01:27:57;55910.13;;;-142.21;80.11
5053;BME280;2545;50.892;5.740;2023-09-08T01:30:26;55896.41;;;-142.21;80.83
5053;BME280;2545;50.892;5.740;2023-09-08T01:32:58;55917.97;;;-142.21;81.37
5053;BME280;2545;50.892;5.740;2023-09-08T01:35:24;55914.06;;;-142.21;81.27
5053;BME280;2545;50.892;5.740;2023-09-08T01:37:50;55931.69;;;-142.21;81.65
5053;BME280;2545;50.892;5.740;2023-09-08T01:40:15;55949.34;;;-142.21;81.99
5053;BME280;2545;50.892;5.740;2023-09-08T01:42:41;55914.06;;;-142.21;82.01
5053;BME280;2545;50.892;5.740;2023-09-08T01:45:07;55914.06;;;-142.21;81.50
5053;BME280;2545;50.892;5.740;2023-09-08T01:47:37;55939.53;;;-142.21;81.38
5053;BME280;2545;50.892;5.740;2023-09-08T01:50:07;55910.13;;;-142.21;81.76
5053;BME280;2545;50.892;5.740;2023-09-08T01:52:33;55923.84;;;-142.21;81.74
5053;BME280;2545;50.892;5.740;2023-09-08T01:55:00;55880.72;;;-142.21;81.19
5053;BME280;2545;50.892;5.740;2023-09-08T01:57:26;55931.69;;;-142.21;80.60
5053;BME280;2545;50.892;5.740;2023-09-08T01:59:54;55939.53;;;-142.21;80.66
5053;BME280;2545;50.892;5.740;2023-09-08T02:02:19;55923.84;;;-142.21;81.42
5053;BME280;2545;50.892;5.740;2023-09-08T02:04:47;55951.31;;;-142.21;82.52
5053;BME280;2545;50.892;5.740;2023-09-08T02:07:13;55955.22;;;-142.21;83.20
5053;BME280;2545;50.892;5.740;2023-09-08T02:09:38;55941.50;;;-142.21;83.66
5053;BME280;2545;50.892;5.740;2023-09-08T02:12:06;55917.97;;;-142.21;83.88
5053;BME280;2545;50.892;5.740;2023-09-08T02:14:31;55923.84;;;-142.21;84.48
5053;BME280;2545;50.892;5.740;2023-09-08T02:16:59;55947.38;;;-142.21;85.14
5053;BME280;2545;50.892;5.740;2023-09-08T02:19:24;55939.53;;;-142.21;85.54
5053;BME280;2545;50.892;5.740;2023-09-08T02:21:50;55959.16;;;-142.21;85.86
5053;BME280;2545;50.892;5.740;2023-09-08T02:24:15;55919.94;;;-142.21;85.49
5053;BME280;2545;50.892;5.740;2023-09-08T02:26:43;55941.50;;;-142.21;85.39
5053;BME280;2545;50.892;5.740;2023-09-08T02:29:09;55925.81;;;-142.21;84.99
5053;BME280;2545;50.892;5.740;2023-09-08T02:31:34;55921.91;;;-142.21;84.27
5053;BME280;2545;50.892;5.740;2023-09-08T02:34:00;55935.63;;;-142.21;83.98
5053;BME280;2545;50.892;5.740;2023-09-08T02:36:28;55914.06;;;-142.21;84.34
5053;BME280;2545;50.892;5.740;2023-09-08T02:38:54;55931.69;;;-142.21;84.82
5053;BME280;2545;50.892;5.740;2023-09-08T02:41:20;55900.31;;;-142.21;84.86
5053;BME280;2545;50.892;5.740;2023-09-08T02:43:48;55919.94;;;-142.21;85.19
5053;BME280;2545;50.892;5.740;2023-09-08T02:46:14;55947.38;;;-142.21;85.69
5053;BME280;2545;50.892;5.740;2023-09-08T02:48:39;55933.66;;;-142.21;86.01
5053;BME280;2545;50.892;5.740;2023-09-08T02:51:05;55939.53;;;-142.21;86.17
5053;BME280;2545;50.892;5.740;2023-09-08T02:53:30;55921.91;;;-142.21;86.08
5053;BME280;2545;50.892;5.740;2023-09-08T02:55:56;55967.00;;;-142.21;85.79
5053;BME280;2545;50.892;5.740;2023-09-08T02:58:22;55933.66;;;-142.21;85.74
5053;BME280;2545;50.892;5.740;2023-09-08T03:00:47;55908.16;;;-142.21;85.71
5053;BME280;2545;50.892;5.740;2023-09-08T03:03:17;55937.56;;;-142.21;86.56
5053;BME280;2545;50.892;5.740;2023-09-08T03:05:43;55943.47;;;-142.21;86.72
5053;BME280;2545;50.892;5.740;2023-09-08T03:08:10;55921.91;;;-142.21;85.88
5053;BME280;2545;50.892;5.740;2023-09-08T03:10:36;55943.47;;;-142.21;84.91
5053;BME280;2545;50.892;5.740;2023-09-08T03:13:04;55912.09;;;-142.21;84.88
5053;BME280;2545;50.892;5.740;2023-09-08T03:15:29;55943.47;;;-142.21;85.53
5053;BME280;2545;50.892;5.740;2023-09-08T03:17:57;55963.06;;;-142.21;86.24
5053;BME280;2545;50.892;5.740;2023-09-08T03:20:26;55910.13;;;-142.21;86.44
5053;BME280;2545;50.892;5.740;2023-09-08T03:22:55;55908.16;;;-142.21;85.95
5053;BME280;2545;50.892;5.740;2023-09-08T03:25:21;55947.38;;;-142.21;87.21
5053;BME280;2545;50.892;5.740;2023-09-08T03:27:46;55921.91;;;-142.21;88.27
5053;BME280;2545;50.892;5.740;2023-09-08T03:30:14;55931.69;;;-142.21;88.67
5053;BME280;2545;50.892;5.740;2023-09-08T03:32:42;55953.25;;;-142.21;88.69
5053;BME280;2545;50.892;5.740;2023-09-08T03:35:11;55939.53;;;-142.21;88.73
5053;BME280;2545;50.892;5.740;2023-09-08T03:37:36;55961.09;;;-142.21;89.69
5053;BME280;2545;50.892;5.740;2023-09-08T03:40:01;55959.16;;;-142.21;90.34
5053;BME280;2545;50.892;5.740;2023-09-08T03:42:29;55961.09;;;-142.21;90.18
5053;BME280;2545;50.892;5.740;2023-09-08T03:44:57;55949.34;;;-142.21;89.65
5053;BME280;2545;50.892;5.740;2023-09-08T03:47:23;55980.72;;;-142.21;88.89
5053;BME280;2545;50.892;5.740;2023-09-08T03:49:50;55959.16;;;-142.21;88.29
5053;BME280;2545;50.892;5.740;2023-09-08T03:52:15;55941.50;;;-142.21;88.27
5053;BME280;2545;50.892;5.740;2023-09-08T03:54:43;55923.84;;;-142.21;88.97
5053;BME280;2545;50.892;5.740;2023-09-08T03:57:09;55925.81;;;-142.21;89.45
5053;BME280;2545;50.892;5.740;2023-09-08T03:59:37;55916.00;;;-142.21;88.88
5053;BME280;2545;50.892;5.740;2023-09-08T04:02:05;55982.69;;;-142.21;88.09
5053;BME280;2545;50.892;5.740;2023-09-08T04:04:30;55974.84;;;-142.21;88.43
5053;BME280;2545;50.892;5.740;2023-09-08T04:06:56;55943.47;;;-142.21;89.59
5053;BME280;2545;50.892;5.740;2023-09-08T04:09:24;55939.53;;;-142.21;91.48
5053;BME280;2545;50.892;5.740;2023-09-08T04:11:49;55947.38;;;-142.21;92.59
5053;BME280;2545;50.892;5.740;2023-09-08T04:14:15;55970.91;;;-142.21;92.72
5053;BME280;2545;50.892;5.740;2023-09-08T04:16:41;55959.16;;;-142.21;92.59
5053;BME280;2545;50.892;5.740;2023-09-08T04:19:06;55894.44;;;-142.21;92.36
5053;BME280;2545;50.892;5.740;2023-09-08T04:21:31;55927.78;;;-142.21;92.71
5053;BME280;2545;50.892;5.740;2023-09-08T04:23:57;55959.16;;;-142.21;92.42
5053;BME280;2545;50.892;5.740;2023-09-08T04:26:22;55921.91;;;-142.21;92.65
5053;BME280;2545;50.892;5.740;2023-09-08T04:28:48;55927.78;;;-142.21;92.35
5053;BME280;2545;50.892;5.740;2023-09-08T04:31:13;55935.63;;;-142.21;93.17
5053;BME280;2545;50.892;5.740;2023-09-08T04:33:38;55970.91;;;-142.21;93.43
5053;BME280;2545;50.892;5.740;2023-09-08T04:36:04;55935.63;;;-142.21;93.08
5053;BME280;2545;50.892;5.740;2023-09-08T04:38:29;55967.00;;;-142.21;92.01
5053;BME280;2545;50.892;5.740;2023-09-08T04:40:55;55931.69;;;-142.21;91.81
5053;BME280;2545;50.892;5.740;2023-09-08T04:43:22;55963.06;;;-142.21;91.72
5053;BME280;2545;50.892;5.740;2023-09-08T04:45:47;55949.34;;;-142.21;91.48
5053;BME280;2545;50.892;5.740;2023-09-08T04:48:13;55982.69;;;-142.21;92.12
5053;BME280;2545;50.892;5.740;2023-09-08T04:50:38;55886.59;;;-142.21;92.81
5053;BME280;2545;50.892;5.740;2023-09-08T04:53:06;55921.91;;;-142.21;93.69
5053;BME280;2545;50.892;5.740;2023-09-08T04:55:37;55963.06;;;-142.21;94.95
5053;BME280;2545;50.892;5.740;2023-09-08T04:58:05;55933.66;;;-142.21;95.88
5053;BME280;2545;50.892;5.740;2023-09-08T05:00:37;55919.94;;;-142.21;95.56
5053;BME280;2545;50.892;5.740;2023-09-08T05:03:02;55986.59;;;-142.21;95.43
5053;BME280;2545;50.892;5.740;2023-09-08T05:05:30;55929.75;;;-142.21;95.57
5053;BME280;2545;50.892;5.740;2023-09-08T05:07:57;55974.84;;;-142.21;95.97
5053;BME280;2545;50.892;5.740;2023-09-08T05:10:23;55951.31;;;-142.21;96.29
5053;BME280;2545;50.892;5.740;2023-09-08T05:12:49;55931.69;;;-142.21;95.43
5053;BME280;2545;50.892;5.740;2023-09-08T05:15:17;55951.31;;;-142.21;95.72
5053;BME280;2545;50.892;5.740;2023-09-08T05:17:48;55947.38;;;-142.21;96.06
5053;BME280;2545;50.892;5.740;2023-09-08T05:20:15;55927.78;;;-142.21;96.29
5053;BME280;2545;50.892;5.740;2023-09-08T05:22:41;55965.03;;;-142.21;97.05
5053;BME280;2545;50.892;5.740;2023-09-08T05:25:09;55968.94;;;-142.21;97.05
5053;BME280;2545;50.892;5.740;2023-09-08T05:27:37;55963.06;;;-142.21;97.57
5053;BME280;2545;50.892;5.740;2023-09-08T05:30:03;55980.72;;;-142.21;97.87
5053;BME280;2545;50.892;5.740;2023-09-08T05:32:29;55963.06;;;-142.21;97.36
5053;BME280;2545;50.892;5.740;2023-09-08T05:34:56;55957.19;;;-142.21;97.21
5053;BME280;2545;50.892;5.740;2023-09-08T05:37:23;55970.91;;;-142.21;96.06
5053;BME280;2545;50.892;5.740;2023-09-08T05:39:50;55908.16;;;-142.21;95.90
5053;BME280;2545;50.892;5.740;2023-09-08T05:42:18;55939.53;;;-142.21;95.35
5053;BME280;2545;50.892;5.740;2023-09-08T05:44:45;55951.31;;;-142.21;94.23
5053;BME280;2545;50.892;5.740;2023-09-08T05:47:13;55953.25;;;-142.21;92.75
5053;BME280;2545;50.892;5.740;2023-09-08T05:49:41;55965.03;;;-142.21;92.75
5053;BME280;2545;50.892;5.740;2023-09-08T05:52:06;55978.75;;;-142.21;92.94
5053;BME280;2545;50.892;5.740;2023-09-08T05:54:32;55961.09;;;-142.21;93.18
5053;BME280;2545;50.892;5.740;2023-09-08T05:56:57;55957.19;;;-142.21;92.11
5053;BME280;2545;50.892;5.740;2023-09-08T05:59:23;55963.06;;;-142.21;91.83
5053;BME280;2545;50.892;5.740;2023-09-08T06:01:48;55949.34;;;-142.21;91.28
5053;BME280;2545;50.892;5.740;2023-09-08T06:04:13;55955.22;;;-142.21;90.18
5053;BME280;2545;50.892;5.740;2023-09-08T06:06:39;55929.75;;;-142.21;89.40
5053;BME280;2545;50.892;5.740;2023-09-08T06:09:05;55949.34;;;-142.21;89.27
5053;BME280;2545;50.892;5.740;2023-09-08T06:11:35;55957.19;;;-142.21;89.04
5053;BME280;2545;50.892;5.740;2023-09-08T06:14:00;55941.50;;;-142.21;88.49
5053;BME280;2545;50.892;5.740;2023-09-08T06:16:26;55943.47;;;-142.21;88.06
5053;BME280;2545;50.892;5.740;2023-09-08T06:18:51;55949.34;;;-142.21;86.70
5053;BME280;2545;50.892;5.740;2023-09-08T06:21:17;55939.53;;;-142.21;85.38
5053;BME280;2545;50.892;5.740;2023-09-08T06:23:42;55967.00;;;-142.21;84.04
5053;BME280;2545;50.892;5.740;2023-09-08T06:26:10;55976.78;;;-142.21;83.22
5053;BME280;2545;50.892;5.740;2023-09-08T06:28:35;55941.50;;;-142.21;83.25
5053;BME280;2545;50.892;5.740;2023-09-08T06:31:04;55978.75;;;-142.21;83.50
5053;BME280;2545;50.892;5.740;2023-09-08T06:33:29;55974.84;;;-142.21;83.09
5053;BME280;2545;50.892;5.740;2023-09-08T06:35:57;55921.91;;;-142.21;81.05
5053;BME280;2545;50.892;5.740;2023-09-08T06:38:24;55933.66;;;-142.21;79.17
5053;BME280;2545;50.892;5.740;2023-09-08T06:40:52;55927.78;;;-142.21;78.75
5053;BME280;2545;50.892;5.740;2023-09-08T06:43:21;55931.69;;;-142.21;78.11
5053;BME280;2545;50.892;5.740;2023-09-08T06:45:49;55937.56;;;-142.21;76.46
5053;BME280;2545;50.892;5.740;2023-09-08T06:48:16;55931.69;;;-142.21;74.49
5053;BME280;2545;50.892;5.740;2023-09-08T06:50:41;55939.53;;;-142.21;73.27
5053;BME280;2545;50.892;5.740;2023-09-08T06:53:07;55904.25;;;-142.21;71.48
5053;BME280;2545;50.892;5.740;2023-09-08T06:55:32;55912.09;;;-142.21;71.07
5053;BME280;2545;50.892;5.740;2023-09-08T06:57:58;55908.16;;;-142.21;69.06
5053;BME280;2545;50.892;5.740;2023-09-08T07:00:23;55906.22;;;-142.21;68.92
5053;BME280;2545;50.892;5.740;2023-09-08T07:02:49;55855.22;;;-142.21;68.97
5053;BME280;2545;50.892;5.740;2023-09-08T07:05:17;55906.22;;;-142.21;68.65
5053;BME280;2545;50.892;5.740;2023-09-08T07:07:42;55910.13;;;-142.21;67.62
5053;BME280;2545;50.892;5.740;2023-09-08T07:10:08;55882.69;;;-142.21;67.27
5053;BME280;2545;50.892;5.740;2023-09-08T07:12:34;55874.84;;;-142.21;66.61
5053;BME280;2545;50.892;5.740;2023-09-08T07:14:59;55876.78;;;-142.21;65.83
5053;BME280;2545;50.892;5.740;2023-09-08T07:17:25;55884.63;;;-142.21;64.80
5053;BME280;2545;50.892;5.740;2023-09-08T07:19:51;55921.91;;;-142.21;63.50
5053;BME280;2545;50.892;5.740;2023-09-08T07:22:17;55867.00;;;-142.21;62.82
5053;BME280;2545;50.892;5.740;2023-09-08T07:24:42;55886.59;;;-142.21;62.71
5053;BME280;2545;50.892;5.740;2023-09-08T07:27:09;55880.72;;;-142.21;62.49
5053;BME280;2545;50.892;5.740;2023-09-08T07:29:34;55874.84;;;-142.21;61.66
5053;BME280;2545;50.892;5.740;2023-09-08T07:32:00;55872.88;;;-142.21;60.76
5053;BME280;2545;50.892;5.740;2023-09-08T07:34:25;55898.38;;;-142.21;60.07
5053;BME280;2545;50.892;5.740;2023-09-08T07:36:51;55849.34;;;-142.21;59.45
5053;BME280;2545;50.892;5.740;2023-09-08T07:39:16;55880.72;;;-142.21;57.96
5053;BME280;2545;50.892;5.740;2023-09-08T07:41:41;55872.88;;;-142.21;57.90
5053;BME280;2545;50.892;5.740;2023-09-08T07:44:07;55861.09;;;-142.21;57.82
5053;BME280;2545;50.892;5.740;2023-09-08T07:46:32;55878.75;;;-142.21;57.46
5053;BME280;2545;50.892;5.740;2023-09-08T07:48:59;55857.19;;;-142.21;57.57
5053;BME280;2545;50.892;5.740;2023-09-08T07:51:25;55874.84;;;-142.21;58.17
5053;BME280;2545;50.892;5.740;2023-09-08T07:53:54;55898.38;;;-142.21;57.92
5053;BME280;2545;50.892;5.740;2023-09-08T07:56:21;55865.03;;;-142.21;58.54
5053;BME280;2545;50.892;5.740;2023-09-08T07:58:46;55878.75;;;-142.21;58.18
5053;BME280;2545;50.892;5.740;2023-09-08T08:01:13;55865.03;;;-142.21;56.64
5053;BME280;2545;50.892;5.740;2023-09-08T08:03:38;55812.09;;;-142.21;54.19
5053;BME280;2545;50.892;5.740;2023-09-08T08:06:04;55812.09;;;-142.21;54.12
5053;BME280;2545;50.892;5.740;2023-09-08T08:08:30;55839.53;;;-142.21;52.94
5053;BME280;2545;50.892;5.740;2023-09-08T08:10:56;55845.44;;;-142.21;52.72
5053;BME280;2545;50.892;5.740;2023-09-08T08:13:21;55859.16;;;-142.21;52.95
5053;BME280;2545;50.892;5.740;2023-09-08T08:15:47;55837.59;;;-142.21;51.25
5053;BME280;2545;50.892;5.740;2023-09-08T08:18:13;55861.09;;;-142.21;51.54
5053;BME280;2545;50.892;5.740;2023-09-08T08:20:39;55833.66;;;-142.21;50.58
5053;BME280;2545;50.892;5.740;2023-09-08T08:23:05;55867.00;;;-142.21;50.90
5053;BME280;2545;50.892;5.740;2023-09-08T08:25:34;55831.69;;;-142.21;51.27
5053;BME280;2545;50.892;5.740;2023-09-08T08:27:59;55845.44;;;-142.21;50.72
5053;BME280;2545;50.892;5.740;2023-09-08T08:30:26;55841.50;;;-142.21;50.33
5053;BME280;2545;50.892;5.740;2023-09-08T08:32:52;55865.03;;;-142.21;51.13
5053;BME280;2545;50.892;5.740;2023-09-08T08:35:19;55808.16;;;-142.21;50.05
5053;BME280;2545;50.892;5.740;2023-09-08T08:37:44;55855.22;;;-142.21;50.01
5053;BME280;2545;50.892;5.740;2023-09-08T08:40:10;55865.03;;;-142.21;50.11
5053;BME280;2545;50.892;5.740;2023-09-08T08:42:40;55845.44;;;-142.21;48.75
5053;BME280;2545;50.892;5.740;2023-09-08T08:45:06;55810.13;;;-142.21;48.10
5053;BME280;2545;50.892;5.740;2023-09-08T08:47:32;55831.69;;;-142.21;48.14
5053;BME280;2545;50.892;5.740;2023-09-08T08:49:59;55823.84;;;-142.21;49.53
5053;BME280;2545;50.892;5.740;2023-09-08T08:52:26;55841.50;;;-142.21;48.48
5053;BME280;2545;50.892;5.740;2023-09-08T08:54:51;55837.59;;;-142.21;47.99
5053;BME280;2545;50.892;5.740;2023-09-08T08:57:17;55810.13;;;-142.21;47.80
5053;BME280;2545;50.892;5.740;2023-09-08T08:59:43;55794.44;;;-142.21;47.42
5053;BME280;2545;50.892;5.740;2023-09-08T09:02:11;55825.81;;;-142.21;46.81
5053;BME280;2545;50.892;5.740;2023-09-08T09:04:37;55827.78;;;-142.21;46.05
5053;BME280;2545;50.892;5.740;2023-09-08T09:07:04;55812.09;;;-142.21;46.11
5053;BME280;2545;50.892;5.740;2023-09-08T09:09:31;55857.19;;;-142.21;46.14
5053;BME280;2545;50.892;5.740;2023-09-08T09:11:57;55817.97;;;-142.21;45.10
5053;BME280;2545;50.892;5.740;2023-09-08T09:14:22;55808.16;;;-142.21;45.09
5053;BME280;2545;50.892;5.740;2023-09-08T09:16:48;55821.91;;;-142.21;45.19
5053;BME280;2545;50.892;5.740;2023-09-08T09:19:22;55868.94;;;-142.21;45.57
5053;BME280;2545;50.892;5.740;2023-09-08T09:21:53;55784.66;;;-142.21;44.70
5053;BME280;2545;50.892;5.740;2023-09-08T09:24:41;55823.84;;;-142.21;45.48
5053;BME280;2545;50.892;5.740;2023-09-08T09:27:09;55800.31;;;-142.21;45.72
5053;BME280;2545;50.892;5.740;2023-09-08T09:29:46;55819.94;;;-142.21;44.83
5053;BME280;2545;50.892;5.740;2023-09-08T09:32:12;55814.06;;;-142.21;44.89
5053;BME280;2545;50.892;5.740;2023-09-08T09:34:48;55804.25;;;-142.21;44.46
5053;BME280;2545;50.892;5.740;2023-09-08T09:37:14;55798.38;;;-142.21;44.82
5053;BME280;2545;50.892;5.740;2023-09-08T09:39:39;55806.22;;;-142.21;44.62
5053;BME280;2545;50.892;5.740;2023-09-08T09:42:05;55804.25;;;-142.21;43.59
5053;BME280;2545;50.892;5.740;2023-09-08T09:44:31;55804.25;;;-142.21;43.78
5053;BME280;2545;50.892;5.740;2023-09-08T09:46:56;55786.59;;;-142.21;43.93
5053;BME280;2545;50.892;5.740;2023-09-08T09:49:22;55798.38;;;-142.21;43.11
5053;BME280;2545;50.892;5.740;2023-09-08T09:51:53;55804.25;;;-142.21;42.52
5053;BME280;2545;50.892;5.740;2023-09-08T09:54:19;55786.59;;;-142.21;41.56
5053;BME280;2545;50.892;5.740;2023-09-08T09:56:45;55767.00;;;-142.21;39.89
5053;BME280;2545;50.892;5.740;2023-09-08T09:59:15;55774.84;;;-142.21;39.59
5053;BME280;2545;50.892;5.740;2023-09-08T10:01:41;55735.63;;;-142.21;38.36
5053;BME280;2545;50.892;5.740;2023-09-08T10:04:08;55712.09;;;-142.21;37.60
5053;BME280;2545;50.892;5.740;2023-09-08T10:06:36;55702.28;;;-142.21;36.67
5053;BME280;2545;50.892;5.740;2023-09-08T10:09:04;55710.13;;;-142.21;36.13
5053;BME280;2545;50.892;5.740;2023-09-08T10:11:37;55743.47;;;-142.21;35.42
5053;BME280;2545;50.892;5.740;2023-09-08T10:14:04;55723.88;;;-142.21;34.19
5053;BME280;2545;50.892;5.740;2023-09-08T10:16:34;55670.94;;;-142.21;32.53
5053;BME280;2545;50.892;5.740;2023-09-08T10:19:00;55612.09;;;-142.21;32.95
5053;BME280;2545;50.892;5.740;2023-09-08T10:21:29;55623.88;;;-142.21;32.66
5053;BME280;2545;50.892;5.740;2023-09-08T10:24:20;55584.66;;;-142.21;31.86
5053;BME280;2545;50.892;5.740;2023-09-08T10:27:09;55739.53;;;-142.21;32.90
5053;BME280;2545;50.892;5.740;2023-09-08T10:29:36;55665.03;;;-142.21;32.73
5053;BME280;2545;50.892;5.740;2023-09-08T10:32:02;55592.50;;;-142.21;31.76
5053;BME280;2545;50.892;5.740;2023-09-08T10:34:28;55619.94;;;-142.21;31.07
5053;BME280;2545;50.892;5.740;2023-09-08T10:36:55;55680.72;;;-142.21;30.94
5053;BME280;2545;50.892;5.740;2023-09-08T10:39:34;55516.03;;;-142.21;29.89
5053;BME280;2545;50.892;5.740;2023-09-08T10:47:23;55484.69;;;-142.21;28.68
5053;BME280;2545;50.892;5.740;2023-09-08T10:49:50;55570.94;;;-142.21;28.24
5053;BME280;2545;50.892;5.740;2023-09-08T10:52:22;55568.97;;;-142.21;27.49
5053;BME280;2545;50.892;5.740;2023-09-08T10:54:49;55457.22;;;-142.21;27.88
5053;BME280;2545;50.892;5.740;2023-09-08T10:57:20;55500.34;;;-142.21;27.80
5053;BME280;2545;50.892;5.740;2023-09-08T11:00:03;55606.22;;;-142.21;28.18
5053;BME280;2545;50.892;5.740;2023-09-08T11:02:42;55421.94;;;-142.21;27.47
5053;BME280;2545;50.892;5.740;2023-09-08T11:05:14;55453.31;;;-142.21;25.89
5053;BME280;2545;50.892;5.740;2023-09-08T11:07:43;55449.38;;;-142.21;26.58
5053;BME280;2545;50.892;5.740;2023-09-08T11:10:09;55447.44;;;-142.21;26.45
5053;BME280;2545;50.892;5.740;2023-09-08T11:12:35;55408.22;;;-142.21;26.17
5053;BME280;2545;50.892;5.740;2023-09-08T11:15:02;55431.75;;;-142.21;26.17
5053;BME280;2545;50.892;5.740;2023-09-08T11:17:33;55441.53;;;-142.21;26.79
5053;BME280;2545;50.892;5.740;2023-09-08T11:19:59;55492.53;;;-142.21;27.04
5053;BME280;2545;50.892;5.740;2023-09-08T11:22:25;55539.56;;;-142.21;26.78
5053;BME280;2545;50.892;5.740;2023-09-08T11:24:52;55494.47;;;-142.21;27.95
5053;BME280;2545;50.892;5.740;2023-09-08T11:27:19;55531.72;;;-142.21;27.56
5053;BME280;2545;50.892;5.740;2023-09-08T11:29:45;55519.97;;;-142.21;27.67
5053;BME280;2545;50.892;5.740;2023-09-08T11:32:11;55484.69;;;-142.21;28.31
5053;BME280;2545;50.892;5.740;2023-09-08T11:34:37;55465.06;;;-142.21;26.48
5053;BME280;2545;50.892;5.740;2023-09-08T11:37:08;55467.03;;;-142.21;26.75
5053;BME280;2545;50.892;5.740;2023-09-08T11:39:38;55549.38;;;-142.21;26.94
5053;BME280;2545;50.892;5.740;2023-09-08T11:42:04;55451.34;;;-142.21;25.68
5053;BME280;2545;50.892;5.740;2023-09-08T11:44:29;55394.50;;;-142.21;26.48
5053;BME280;2545;50.892;5.740;2023-09-08T11:46:55;55451.34;;;-142.21;25.87
5053;BME280;2545;50.892;5.740;2023-09-08T11:49:20;55419.97;;;-142.21;25.85
5053;BME280;2545;50.892;5.740;2023-09-08T11:51:47;55416.06;;;-142.21;26.06
5053;BME280;2545;50.892;5.740;2023-09-08T11:54:13;55525.84;;;-142.21;27.19
5053;BME280;2545;50.892;5.740;2023-09-08T11:56:39;55439.59;;;-142.21;26.62
5053;BME280;2545;50.892;5.740;2023-09-08T11:59:06;55555.25;;;-142.21;26.92
5053;BME280;2545;50.892;5.740;2023-09-08T12:01:31;55470.94;;;-142.21;26.65
5053;BME280;2545;50.892;5.740;2023-09-08T12:03:57;55453.31;;;-142.21;26.83
5053;BME280;2545;50.892;5.740;2023-09-08T12:06:28;55421.94;;;-142.21;25.82
5053;BME280;2545;50.892;5.740;2023-09-08T12:08:55;55512.13;;;-142.21;26.00
5053;BME280;2545;50.892;5.740;2023-09-08T12:11:21;55508.19;;;-142.21;26.96
5053;BME280;2545;50.892;5.740;2023-09-08T12:13:46;55480.75;;;-142.21;26.22
5053;BME280;2545;50.892;5.740;2023-09-08T12:16:21;55488.59;;;-142.21;26.21
5053;BME280;2545;50.892;5.740;2023-09-08T12:18:50;55543.50;;;-142.21;26.21
5053;BME280;2545;50.892;5.740;2023-09-08T12:21:16;55382.72;;;-142.21;25.18
5053;BME280;2545;50.892;5.740;2023-09-08T12:23:48;55370.97;;;-142.21;25.36
5053;BME280;2545;50.892;5.740;2023-09-08T12:26:14;55359.22;;;-142.21;25.16
5053;BME280;2545;50.892;5.740;2023-09-08T12:28:42;55461.16;;;-142.21;25.61
5053;BME280;2545;50.892;5.740;2023-09-08T12:31:12;55418.03;;;-142.21;25.95
5053;BME280;2545;50.892;5.740;2023-09-08T12:33:37;55543.50;;;-142.21;26.49
5053;BME280;2545;50.892;5.740;2023-09-08T12:36:17;55433.69;;;-142.21;25.55
5053;BME280;2545;50.892;5.740;2023-09-08T12:39:03;55331.75;;;-142.21;24.86
5053;BME280;2545;50.892;5.740;2023-09-08T12:41:32;55367.03;;;-142.21;25.75
5053;BME280;2545;50.892;5.740;2023-09-08T12:43:58;55504.28;;;-142.21;26.04
5053;BME280;2545;50.892;5.740;2023-09-08T12:46:23;55418.03;;;-142.21;26.26
5053;BME280;2545;50.892;5.740;2023-09-08T12:48:49;55382.72;;;-142.21;25.76
5053;BME280;2545;50.892;5.740;2023-09-08T12:51:14;55435.66;;;-142.21;26.75
5053;BME280;2545;50.892;5.740;2023-09-08T12:53:40;55472.91;;;-142.21;27.58
5053;BME280;2545;50.892;5.740;2023-09-08T12:56:05;55488.59;;;-142.21;26.83
5053;BME280;2545;50.892;5.740;2023-09-08T12:58:31;55472.91;;;-142.21;27.60
5053;BME280;2545;50.892;5.740;2023-09-08T13:00:57;55472.91;;;-142.21;27.02
5053;BME280;2545;50.892;5.740;2023-09-08T13:03:22;55382.72;;;-142.21;25.54
5053;BME280;2545;50.892;5.740;2023-09-08T13:05:49;55380.78;;;-142.21;25.54
5053;BME280;2545;50.892;5.740;2023-09-08T13:08:14;55535.66;;;-142.21;26.21
5053;BME280;2545;50.892;5.740;2023-09-08T13:10:40;55325.88;;;-142.21;25.29